createdAt,value
2023-05-13T00:00:44.913Z,13.30
2023-05-13T00:03:13.777Z,13.20
2023-05-13T00:05:42.616Z,13.20
2023-05-13T00:08:12.095Z,13.20
2023-05-13T00:10:40.805Z,13.10
2023-05-13T00:13:10.923Z,12.50
2023-05-13T00:15:40.440Z,13.00
2023-05-13T00:18:09.731Z,12.90
2023-05-13T00:20:38.472Z,12.90
2023-05-13T00:23:08.015Z,12.90
2023-05-13T00:25:36.987Z,12.80
2023-05-13T00:28:07.512Z,12.90
2023-05-13T00:30:37.713Z,12.80
2023-05-13T00:33:07.730Z,12.80
2023-05-13T00:44:34.852Z,12.70
2023-05-13T00:49:34.445Z,12.60
2023-05-13T00:52:03.649Z,12.60
2023-05-13T00:54:32.475Z,12.60
2023-05-13T00:57:01.052Z,12.50
2023-05-13T00:59:31.973Z,12.50
2023-05-13T01:02:09.837Z,12.50
2023-05-13T01:04:46.258Z,12.50
2023-05-13T01:07:25.137Z,12.50
2023-05-13T01:10:05.189Z,12.50
2023-05-13T01:12:44.824Z,12.40
2023-05-13T01:15:17.369Z,12.40
2023-05-13T01:17:55.500Z,12.60
2023-05-13T01:20:25.036Z,12.30
2023-05-13T01:22:56.744Z,12.30
2023-05-13T01:25:25.823Z,12.30
2023-05-13T01:27:54.957Z,12.30
2023-05-13T01:30:24.215Z,12.20
2023-05-13T01:32:53.962Z,12.20
2023-05-13T01:35:24.353Z,12.20
2023-05-13T01:37:54.747Z,12.20
2023-05-13T01:40:32.251Z,12.20
2023-05-13T01:43:01.934Z,12.20
2023-05-13T01:45:31.098Z,12.10
2023-05-13T01:47:59.745Z,12.10
2023-05-13T01:50:28.514Z,12.10
2023-05-13T01:52:59.121Z,12.00
2023-05-13T01:55:29.085Z,12.00
2023-05-13T01:57:57.637Z,12.00
2023-05-13T02:00:26.322Z,12.00
2023-05-13T02:02:54.847Z,12.00
2023-05-13T02:05:23.829Z,11.90
2023-05-13T02:07:52.758Z,12.00
2023-05-13T02:10:23.460Z,11.90
2023-05-13T02:12:52.223Z,12.00
2023-05-13T02:15:20.977Z,11.90
2023-05-13T02:17:49.608Z,11.90
2023-05-13T02:20:18.577Z,11.90
2023-05-13T02:22:47.132Z,11.80
2023-05-13T02:25:15.712Z,11.80
2023-05-13T02:27:45.790Z,11.70
2023-05-13T02:30:14.956Z,11.80
2023-05-13T02:32:44.273Z,11.70
2023-05-13T02:35:12.855Z,11.70
2023-05-13T02:37:41.455Z,11.60
2023-05-13T02:40:11.666Z,11.60
2023-05-13T02:42:40.128Z,11.60
2023-05-13T02:45:11.846Z,11.50
2023-05-13T02:47:40.646Z,11.60
2023-05-13T02:50:10.337Z,11.60
2023-05-13T02:52:39.423Z,11.60
2023-05-13T02:55:09.974Z,11.60
2023-05-13T02:57:39.229Z,11.60
2023-05-13T03:00:11.336Z,11.60
2023-05-13T03:02:40.251Z,11.60
2023-05-13T03:05:10.179Z,11.60
2023-05-13T03:07:39.374Z,11.60
2023-05-13T03:10:09.269Z,11.50
2023-05-13T03:12:37.897Z,11.50
2023-05-13T03:15:08.274Z,11.50
2023-05-13T03:17:38.631Z,11.10
2023-05-13T03:20:08.597Z,11.40
2023-05-13T03:22:38.818Z,11.40
2023-05-13T03:25:08.125Z,11.40
2023-05-13T03:27:36.705Z,11.30
2023-05-13T03:30:05.886Z,11.30
2023-05-13T03:32:34.904Z,11.30
2023-05-13T03:35:05.129Z,11.30
2023-05-13T03:37:33.702Z,11.30
2023-05-13T03:40:02.341Z,11.30
2023-05-13T03:42:31.158Z,11.30
2023-05-13T03:44:59.755Z,11.20
2023-05-13T03:47:28.491Z,11.20
2023-05-13T03:49:57.476Z,11.20
2023-05-13T03:52:27.541Z,11.10
2023-05-13T03:54:56.118Z,11.20
2023-05-13T03:57:24.854Z,11.20
2023-05-13T03:59:53.304Z,10.80
2023-05-13T04:02:22.808Z,11.20
2023-05-13T04:04:51.810Z,11.30
2023-05-13T04:07:20.430Z,11.30
2023-05-13T04:09:50.664Z,11.30
2023-05-13T04:12:19.438Z,11.30
2023-05-13T04:14:48.018Z,11.30
2023-05-13T04:17:16.563Z,11.30
2023-05-13T04:19:46.632Z,11.30
2023-05-13T04:22:15.088Z,11.30
2023-05-13T04:24:43.720Z,11.20
2023-05-13T04:27:18.776Z,11.40
2023-05-13T04:29:47.383Z,11.50
2023-05-13T04:32:22.233Z,11.60
2023-05-13T04:34:50.999Z,12.00
2023-05-13T04:37:20.101Z,12.60
2023-05-13T04:39:49.062Z,13.30
2023-05-13T04:42:19.240Z,13.90
2023-05-13T04:44:47.716Z,14.40
2023-05-13T04:47:16.711Z,15.20
2023-05-13T04:49:45.478Z,15.60
2023-05-13T04:52:14.540Z,16.00
2023-05-13T04:54:43.351Z,16.20
2023-05-13T04:57:11.958Z,16.70
2023-05-13T04:59:42.109Z,17.00
2023-05-13T05:02:10.826Z,17.40
2023-05-13T05:04:39.666Z,17.80
2023-05-13T05:07:08.484Z,18.20
2023-05-13T05:09:37.132Z,18.50
2023-05-13T05:12:06.260Z,18.70
2023-05-13T05:14:34.837Z,19.00
2023-05-13T05:17:06.013Z,19.10
2023-05-13T05:19:34.479Z,19.50
2023-05-13T05:24:32.526Z,20.40
2023-05-13T05:27:01.096Z,20.50
2023-05-13T05:29:29.639Z,20.80
2023-05-13T05:31:59.813Z,21.20
2023-05-13T05:34:29.831Z,21.70
2023-05-13T05:36:58.557Z,21.80
2023-05-13T05:39:27.200Z,21.90
2023-05-13T05:41:55.816Z,22.20
2023-05-13T05:44:24.343Z,22.30
2023-05-13T05:46:54.104Z,22.40
2023-05-13T05:49:22.729Z,22.50
2023-05-13T05:51:52.975Z,22.70
2023-05-13T05:54:21.590Z,23.00
2023-05-13T05:56:50.129Z,23.30
2023-05-13T05:59:18.759Z,23.80
2023-05-13T06:01:47.465Z,24.10
2023-05-13T06:04:17.506Z,24.30
2023-05-13T06:06:46.397Z,24.40
2023-05-13T06:09:17.168Z,24.80
2023-05-13T06:11:45.788Z,25.00
2023-05-13T06:14:14.553Z,25.40
2023-05-13T06:16:43.241Z,25.70
2023-05-13T06:19:12.010Z,25.60
2023-05-13T06:21:43.286Z,25.80
2023-05-13T06:24:11.862Z,26.10
2023-05-13T06:26:42.016Z,26.10
2023-05-13T06:29:11.272Z,26.10
2023-05-13T06:31:40.003Z,26.50
2023-05-13T06:36:37.544Z,26.80
2023-05-13T06:39:06.509Z,27.00
2023-05-13T06:41:35.264Z,27.10
2023-05-13T06:44:05.506Z,27.00
2023-05-13T06:46:35.126Z,27.40
2023-05-13T06:49:03.800Z,27.50
2023-05-13T06:51:34.168Z,27.70
2023-05-13T06:54:04.152Z,28.00
2023-05-13T06:56:32.839Z,28.10
2023-05-13T06:59:02.300Z,28.00
2023-05-13T07:01:32.629Z,28.20
2023-05-13T07:04:01.972Z,28.60
2023-05-13T07:06:30.846Z,29.20
2023-05-13T07:08:59.850Z,28.80
2023-05-13T07:11:29.238Z,28.80
2023-05-13T07:13:58.244Z,29.10
2023-05-13T07:16:26.845Z,29.40
2023-05-13T07:18:57.062Z,29.70
2023-05-13T07:21:25.848Z,29.60
2023-05-13T07:23:54.901Z,29.80
2023-05-13T07:26:23.836Z,29.20
2023-05-13T07:28:52.554Z,29.30
2023-05-13T07:31:21.284Z,29.60
2023-05-13T07:33:50.845Z,29.30
2023-05-13T07:36:20.842Z,29.10
2023-05-13T07:38:49.414Z,29.30
2023-05-13T07:41:17.936Z,29.40
2023-05-13T07:43:46.591Z,29.40
2023-05-13T07:46:15.201Z,29.20
2023-05-13T07:48:44.632Z,29.20
2023-05-13T07:51:13.452Z,29.60
2023-05-13T07:53:43.729Z,29.70
2023-05-13T07:58:41.233Z,30.20
2023-05-13T08:01:10.036Z,30.60
2023-05-13T08:03:39.143Z,30.20
2023-05-13T08:06:08.129Z,29.90
2023-05-13T08:08:37.187Z,29.80
2023-05-13T08:11:09.574Z,29.20
2023-05-13T08:13:38.698Z,28.60
2023-05-13T08:16:08.387Z,28.30
2023-05-13T08:18:37.543Z,28.90
2023-05-13T08:21:06.624Z,29.60
2023-05-13T08:23:44.718Z,30.10
2023-05-13T08:26:16.841Z,29.90
2023-05-13T08:28:48.519Z,29.00
2023-05-13T08:31:19.142Z,28.70
2023-05-13T08:33:48.830Z,29.50
2023-05-13T08:36:18.114Z,31.00
